Time;durP1;ratioP1;P1;durP2;ratioP2;P2;SDS_P1;SDS_P2;PMS_P1;PMS_P2;Temp;Humidity;BMP_temperature;BMP_pressure;BME280_temperature;BME280_humidity;BME280_pressure;Samples;Min_cycle;Max_cycle;Signal;HPM_P1;HPM_P2
2022/05/12 00:00:32;;;;;;;4.25;3.28;;;15.00;99.90;;;;;;5113790;28;20262;-61
2022/05/12 00:02:58;;;;;;;4.43;3.33;;;14.90;99.90;;;;;;5113735;28;20193;-60
2022/05/12 00:05:24;;;;;;;4.97;3.33;;;15.00;99.90;;;;;;5113711;28;20185;-60
2022/05/12 00:07:51;;;;;;;3.88;3.20;;;14.90;99.90;;;;;;5113619;28;20516;-60
2022/05/12 00:10:20;;;;;;;3.95;3.13;;;14.90;99.90;;;;;;5113565;28;20177;-60
2022/05/12 00:12:46;;;;;;;5.00;3.60;;;14.90;99.90;;;;;;5113466;28;20696;-60
2022/05/12 00:15:16;;;;;;;5.75;3.60;;;14.90;99.90;;;;;;5113457;28;20626;-60
2022/05/12 00:17:44;;;;;;;4.13;3.25;;;14.80;99.90;;;;;;5113625;28;20166;-60
2022/05/12 00:20:14;;;;;;;6.07;3.85;;;14.80;99.90;;;;;;5113411;28;20201;-60
2022/05/12 00:22:40;;;;;;;5.28;3.97;;;14.70;99.90;;;;;;5113518;28;20173;-60
2022/05/12 00:25:12;;;;;;;4.28;3.72;;;14.70;99.90;;;;;;5113392;28;20177;-60
2022/05/12 00:27:38;;;;;;;7.00;4.10;;;14.60;99.90;;;;;;5113335;28;20172;-60
2022/05/12 00:30:05;;;;;;;4.45;3.80;;;14.60;99.90;;;;;;5113527;28;20177;-60
2022/05/12 00:32:31;;;;;;;5.45;3.72;;;14.60;99.90;;;;;;5113468;28;20172;-60
2022/05/12 00:34:56;;;;;;;5.90;4.22;;;14.60;99.90;;;;;;5113284;28;20177;-60
2022/05/12 00:37:22;;;;;;;6.38;4.50;;;14.60;99.90;;;;;;5113329;28;20173;-60
2022/05/12 00:39:48;;;;;;;5.35;3.88;;;14.50;99.90;;;;;;5113172;28;20197;-60
2022/05/12 00:42:13;;;;;;;5.57;4.40;;;14.50;99.90;;;;;;5113146;28;20604;-60
2022/05/12 00:44:39;;;;;;;5.47;4.68;;;14.60;99.90;;;;;;5113767;28;20642;-60
2022/05/12 00:47:05;;;;;;;7.00;4.40;;;14.60;99.90;;;;;;5117102;28;20623;-60
2022/05/12 00:49:35;;;;;;;5.88;4.63;;;14.50;99.90;;;;;;5117267;28;20177;-60
2022/05/12 00:52:15;;;;;;;5.80;3.97;;;14.50;99.90;;;;;;5117466;28;20176;-60
2022/05/12 00:54:51;;;;;;;5.03;4.45;;;14.60;99.90;;;;;;5116964;28;20531;-60
2022/05/12 00:57:24;;;;;;;6.43;4.80;;;14.50;99.90;;;;;;5117230;28;20168;-60
2022/05/12 00:59:50;;;;;;;6.90;4.85;;;14.50;99.90;;;;;;5116979;28;20200;-60
2022/05/12 01:02:20;;;;;;;6.40;4.68;;;14.40;99.90;;;;;;5116951;28;20351;-61
2022/05/12 01:04:47;;;;;;;6.80;4.75;;;14.40;99.90;;;;;;5116976;28;20272;-60
2022/05/12 01:07:13;;;;;;;6.53;4.97;;;14.40;99.90;;;;;;5116722;28;20169;-60
2022/05/12 01:09:39;;;;;;;8.50;5.35;;;14.30;99.90;;;;;;5116990;28;20260;-60
2022/05/12 01:12:06;;;;;;;7.43;5.20;;;14.20;99.90;;;;;;5117231;28;20260;-60
2022/05/12 01:14:33;;;;;;;7.38;5.40;;;14.30;99.90;;;;;;5116700;28;20193;-60
2022/05/12 01:17:02;;;;;;;8.82;5.65;;;14.20;99.90;;;;;;5116918;28;20222;-60
2022/05/12 01:19:35;;;;;;;6.68;5.53;;;14.10;99.90;;;;;;5116402;28;20170;-60
2022/05/12 01:22:02;;;;;;;7.40;5.25;;;14.10;99.90;;;;;;5116970;28;20166;-60
2022/05/12 01:24:39;;;;;;;6.38;5.07;;;14.10;99.90;;;;;;5116532;28;20248;-60
2022/05/12 01:27:22;;;;;;;6.38;4.35;;;14.00;99.90;;;;;;5115295;28;20176;-60
2022/05/12 01:29:51;;;;;;;6.43;4.50;;;13.90;99.90;;;;;;5116299;28;20259;-60
2022/05/12 01:32:18;;;;;;;8.55;5.65;;;14.00;99.90;;;;;;5116285;28;20579;-60
2022/05/12 01:34:44;;;;;;;5.90;4.28;;;14.00;99.90;;;;;;5116292;28;20255;-60
2022/05/12 01:37:10;;;;;;;7.47;4.50;;;14.00;99.90;;;;;;5116298;28;20661;-60
2022/05/12 01:39:36;;;;;;;5.22;4.20;;;14.00;99.90;;;;;;5116468;28;20244;-60
2022/05/12 01:42:08;;;;;;;7.78;4.97;;;13.90;99.90;;;;;;5116153;28;20218;-60
2022/05/12 01:44:35;;;;;;;6.10;4.35;;;13.90;99.90;;;;;;5115973;28;20565;-60
2022/05/12 01:47:01;;;;;;;6.68;4.47;;;13.90;99.90;;;;;;5116202;28;20169;-60
2022/05/12 01:49:26;;;;;;;9.43;4.55;;;13.80;99.90;;;;;;5116090;28;20236;-60
2022/05/12 01:51:57;;;;;;;5.90;4.63;;;13.70;99.90;;;;;;5115957;28;20172;-60
2022/05/12 01:54:23;;;;;;;6.90;4.40;;;13.70;99.90;;;;;;5116033;28;20241;-60
2022/05/12 01:56:50;;;;;;;6.53;5.05;;;13.60;99.90;;;;;;5115661;28;20622;-60
2022/05/12 01:59:17;;;;;;;5.10;4.07;;;13.50;99.90;;;;;;5115728;28;20522;-60
2022/05/12 02:01:42;;;;;;;7.20;4.40;;;13.50;99.90;;;;;;5115903;28;20168;-60
2022/05/12 02:04:08;;;;;;;6.32;4.53;;;13.50;99.90;;;;;;5115631;28;20193;-60
2022/05/12 02:06:34;;;;;;;5.13;4.30;;;13.50;99.90;;;;;;5114522;28;20204;-60
2022/05/12 02:09:00;;;;;;;6.70;4.50;;;13.40;99.90;;;;;;5115676;28;20169;-60
2022/05/12 02:11:26;;;;;;;6.82;3.97;;;13.40;99.90;;;;;;5115521;28;20177;-60
2022/05/12 02:13:52;;;;;;;6.63;4.15;;;13.30;99.90;;;;;;5115758;28;20176;-60
2022/05/12 02:16:18;;;;;;;5.85;3.88;;;13.30;99.90;;;;;;5114346;28;20177;-60
2022/05/12 02:18:44;;;;;;;6.35;4.47;;;13.30;99.90;;;;;;5114262;28;20657;-60
2022/05/12 02:21:10;;;;;;;6.55;4.05;;;13.30;99.90;;;;;;5115286;28;20213;-60
2022/05/12 02:23:36;;;;;;;5.28;3.50;;;13.30;99.90;;;;;;5115371;28;20204;-60
2022/05/12 02:26:02;;;;;;;5.68;3.97;;;13.40;99.90;;;;;;5115279;28;20173;-60
2022/05/12 02:28:28;;;;;;;4.45;3.40;;;13.30;99.90;;;;;;5115202;28;20616;-60
2022/05/12 02:30:53;;;;;;;6.57;3.80;;;13.20;99.90;;;;;;5115373;28;20200;-59
2022/05/12 02:33:19;;;;;;;4.97;3.75;;;13.20;99.90;;;;;;5115270;28;20260;-60
2022/05/12 02:35:45;;;;;;;4.47;3.67;;;13.20;99.90;;;;;;5115125;28;20703;-60
2022/05/12 02:38:13;;;;;;;6.25;3.47;;;13.20;99.90;;;;;;5115076;28;20706;-60
2022/05/12 02:40:39;;;;;;;5.60;3.40;;;13.10;99.90;;;;;;5114866;28;20673;-59
2022/05/12 02:43:23;;;;;;;6.05;3.80;;;13.10;99.90;;;;;;5114898;28;20222;-60
2022/05/12 02:45:53;;;;;;;5.25;3.58;;;13.10;99.90;;;;;;5115067;28;20264;-60
2022/05/12 02:48:20;;;;;;;4.63;3.47;;;13.00;99.90;;;;;;5114965;28;20261;-60
2022/05/12 02:50:46;;;;;;;4.10;3.42;;;12.90;99.90;;;;;;5114776;28;20192;-61
2022/05/12 02:53:11;;;;;;;4.97;3.10;;;12.90;99.90;;;;;;5114746;28;20174;-60
2022/05/12 02:55:38;;;;;;;3.78;3.00;;;13.00;99.90;;;;;;5114643;28;20165;-60
2022/05/12 02:58:04;;;;;;;5.93;3.63;;;12.90;99.90;;;;;;5114945;28;20626;-62
2022/05/12 03:00:31;;;;;;;4.95;3.30;;;12.90;99.90;;;;;;5114686;28;20220;-62
2022/05/12 03:02:57;;;;;;;5.47;3.63;;;12.80;99.90;;;;;;5114532;28;20638;-62
2022/05/12 03:05:23;;;;;;;3.67;2.97;;;12.80;99.90;;;;;;5114838;28;20221;-62
2022/05/12 03:07:48;;;;;;;4.80;3.45;;;12.70;99.90;;;;;;5112696;28;20658;-61
2022/05/12 03:10:15;;;;;;;4.40;3.05;;;12.80;99.90;;;;;;5114660;28;20186;-61
2022/05/12 03:12:41;;;;;;;5.80;3.60;;;12.80;99.90;;;;;;5114493;28;20169;-61
2022/05/12 03:15:08;;;;;;;3.97;3.03;;;12.80;99.90;;;;;;5114466;28;20184;-61
2022/05/12 03:17:35;;;;;;;6.82;3.75;;;12.70;99.90;;;;;;5114418;28;20522;-61
2022/05/12 03:20:02;;;;;;;3.90;3.40;;;12.70;99.90;;;;;;5112957;28;20258;-61
2022/05/12 03:22:27;;;;;;;5.78;3.50;;;12.60;99.90;;;;;;5096007;28;20177;-61
2022/05/12 03:24:53;;;;;;;4.00;2.88;;;12.50;99.90;;;;;;5114342;28;20623;-61
2022/05/12 03:27:19;;;;;;;4.55;3.25;;;12.50;99.90;;;;;;5114357;28;20169;-61
2022/05/12 03:29:45;;;;;;;4.65;3.38;;;12.50;99.90;;;;;;5112940;28;20192;-61
2022/05/12 03:32:12;;;;;;;3.70;3.00;;;12.50;99.90;;;;;;5112888;28;20180;-61
2022/05/12 03:34:39;;;;;;;8.07;3.47;;;12.40;99.90;;;;;;5113872;28;20188;-61
2022/05/12 03:37:09;;;;;;;4.50;3.15;;;12.30;99.90;;;;;;5113929;28;20193;-61
2022/05/12 03:39:36;;;;;;;5.72;3.33;;;12.30;99.90;;;;;;5114044;28;20173;-61
2022/05/12 03:42:04;;;;;;;4.28;3.53;;;12.30;99.90;;;;;;5113825;28;20272;-61
2022/05/12 03:44:49;;;;;;;5.00;3.30;;;12.20;99.90;;;;;;5113845;28;20169;-61
2022/05/12 03:47:19;;;;;;;5.07;3.03;;;12.10;99.90;;;;;;5113910;28;20197;-61
2022/05/12 03:49:46;;;;;;;6.57;3.55;;;12.20;99.90;;;;;;5114219;28;20274;-61
2022/05/12 03:52:12;;;;;;;5.97;3.80;;;12.20;99.90;;;;;;5113978;28;20200;-61
2022/05/12 03:54:39;;;;;;;5.25;3.40;;;12.20;99.90;;;;;;5113759;28;20177;-61
2022/05/12 03:57:06;;;;;;;4.40;3.03;;;12.10;99.90;;;;;;5113692;28;20534;-61
2022/05/12 03:59:32;;;;;;;5.15;3.30;;;12.10;99.90;;;;;;5113692;28;20200;-61
2022/05/12 04:01:58;;;;;;;4.63;2.85;;;12.00;99.90;;;;;;5113547;28;20177;-61
2022/05/12 04:04:24;;;;;;;3.65;3.20;;;12.00;99.90;;;;;;5113890;28;20245;-61
2022/05/12 04:06:50;;;;;;;5.50;4.03;;;12.00;99.90;;;;;;5113770;28;20181;-61
2022/05/12 04:09:16;;;;;;;4.47;2.97;;;12.00;99.90;;;;;;5113695;28;20222;-61
2022/05/12 04:11:42;;;;;;;4.85;2.75;;;11.90;99.90;;;;;;5113557;28;20180;-61
2022/05/12 04:14:08;;;;;;;4.82;3.05;;;11.90;99.90;;;;;;5112315;28;20177;-61
2022/05/12 04:16:33;;;;;;;6.57;3.60;;;11.90;99.90;;;;;;5113520;28;20169;-60
2022/05/12 04:18:59;;;;;;;4.82;2.88;;;11.90;99.90;;;;;;5114733;28;20256;-60
2022/05/12 04:21:26;;;;;;;5.32;3.17;;;11.90;99.90;;;;;;5117985;28;20649;-61
2022/05/12 04:23:52;;;;;;;4.80;2.83;;;12.00;99.90;;;;;;5117802;28;20177;-60
2022/05/12 04:26:18;;;;;;;3.80;3.17;;;12.10;99.90;;;;;;5118041;28;20185;-60
2022/05/12 04:28:44;;;;;;;6.68;3.42;;;12.00;99.90;;;;;;5117548;28;20169;-61
2022/05/12 04:31:10;;;;;;;6.53;3.88;;;12.00;99.90;;;;;;5116203;28;20181;-60
2022/05/12 04:36:20;;;;;;;4.38;3.15;;;12.00;99.90;;;;;;5117467;28;20721;-60
2022/05/12 04:38:45;;;;;;;4.35;3.13;;;12.00;99.90;;;;;;5117550;28;20260;-60
2022/05/12 04:41:11;;;;;;;5.68;3.17;;;12.00;99.90;;;;;;5117250;28;20209;-60
2022/05/12 04:43:37;;;;;;;4.95;2.72;;;12.10;99.90;;;;;;5117331;28;20181;-60
2022/05/12 04:46:03;;;;;;;6.32;3.72;;;12.10;99.90;;;;;;5117133;28;20177;-60
2022/05/12 04:48:31;;;;;;;4.30;2.97;;;12.10;99.90;;;;;;5117375;28;20244;-60
2022/05/12 04:50:57;;;;;;;4.60;3.00;;;12.10;99.90;;;;;;5117154;28;20184;-61
2022/05/12 04:53:24;;;;;;;3.97;3.22;;;12.10;99.90;;;;;;5117184;28;20173;-60
2022/05/12 04:55:49;;;;;;;4.03;3.15;;;12.20;99.90;;;;;;5117067;28;20174;-61
2022/05/12 04:58:15;;;;;;;4.05;3.05;;;12.30;99.90;;;;;;5116880;28;20192;-61
2022/05/12 05:00:43;;;;;;;4.80;2.90;;;12.30;99.90;;;;;;5115920;28;20269;-61
2022/05/12 05:03:10;;;;;;;4.38;3.40;;;12.30;99.90;;;;;;5116144;28;20173;-62
2022/05/12 05:05:36;;;;;;;5.78;3.25;;;12.40;99.90;;;;;;5116157;28;20201;-62
2022/05/12 05:08:03;;;;;;;5.00;3.10;;;12.40;99.90;;;;;;5115655;28;20586;-62
2022/05/12 05:10:29;;;;;;;4.45;3.15;;;12.40;99.90;;;;;;5116743;28;20553;-61
2022/05/12 05:12:54;;;;;;;5.70;3.25;;;12.40;99.90;;;;;;5116645;28;20226;-62
2022/05/12 05:15:23;;;;;;;5.20;3.78;;;12.50;99.90;;;;;;5116875;28;20170;-62
2022/05/12 05:17:49;;;;;;;3.28;2.72;;;12.50;99.90;;;;;;5116530;28;20580;-61
2022/05/12 05:20:23;;;;;;;4.97;3.42;;;12.70;99.90;;;;;;5115314;28;20205;-62
2022/05/12 05:22:48;;;;;;;4.88;3.35;;;12.70;99.90;;;;;;5116768;28;20230;-62
2022/05/12 05:25:15;;;;;;;3.28;2.83;;;12.80;99.90;;;;;;5116716;28;20181;-61
2022/05/12 05:27:41;;;;;;;4.07;3.17;;;13.00;99.90;;;;;;5115016;28;20173;-61
2022/05/12 05:30:11;;;;;;;4.60;3.45;;;13.00;99.90;;;;;;5116377;28;20177;-62
2022/05/12 05:32:37;;;;;;;4.38;3.33;;;13.20;99.90;;;;;;5116123;28;20388;-62
2022/05/12 05:35:04;;;;;;;4.05;2.95;;;13.30;99.90;;;;;;5098052;28;20211;-62
2022/05/12 05:37:29;;;;;;;5.15;3.53;;;13.30;99.90;;;;;;5114937;28;20183;-62
2022/05/12 05:39:55;;;;;;;3.88;3.20;;;13.30;99.90;;;;;;5116013;28;20205;-61
2022/05/12 05:42:21;;;;;;;5.88;3.15;;;13.40;99.90;;;;;;5116432;28;20623;-62
2022/05/12 05:44:47;;;;;;;3.78;2.70;;;13.50;99.90;;;;;;5116267;28;20169;-61
2022/05/12 05:47:13;;;;;;;3.30;3.00;;;13.60;99.90;;;;;;5116201;28;20173;-62
2022/05/12 05:49:41;;;;;;;5.50;3.17;;;13.70;99.90;;;;;;5116093;28;20264;-62
2022/05/12 05:54:52;;;;;;;4.05;3.03;;;14.00;99.90;;;;;;5116236;28;20237;-61
2022/05/12 05:57:26;;;;;;;5.07;2.85;;;14.10;99.90;;;;;;5115828;28;20169;-62
2022/05/12 05:59:54;;;;;;;5.70;3.08;;;14.20;99.90;;;;;;5116063;28;20201;-62
2022/05/12 06:02:20;;;;;;;6.70;3.67;;;14.20;99.90;;;;;;5115623;28;20639;-61
2022/05/12 06:04:46;;;;;;;5.95;3.17;;;14.30;99.90;;;;;;5115942;28;20195;-62
2022/05/12 06:07:11;;;;;;;5.20;2.75;;;14.40;99.90;;;;;;5115632;28;20658;-62
2022/05/12 06:09:37;;;;;;;4.03;2.85;;;14.60;99.90;;;;;;5115820;28;20185;-62
2022/05/12 06:12:03;;;;;;;4.13;2.90;;;14.60;99.90;;;;;;5115747;28;20252;-61
2022/05/12 06:14:30;;;;;;;4.97;2.78;;;14.70;99.90;;;;;;5114457;28;20218;-61
2022/05/12 06:16:56;;;;;;;3.38;2.70;;;14.70;99.90;;;;;;5115444;28;20260;-61
2022/05/12 06:19:21;;;;;;;5.43;3.38;;;14.80;99.90;;;;;;5115331;28;20326;-62
2022/05/12 06:21:49;;;;;;;4.22;2.92;;;14.80;99.90;;;;;;5115312;28;20623;-62
2022/05/12 06:24:15;;;;;;;5.40;3.75;;;15.00;99.90;;;;;;5115562;28;20166;-62
2022/05/12 06:26:41;;;;;;;5.80;3.05;;;15.10;99.90;;;;;;5115395;28;20166;-62
2022/05/12 06:29:06;;;;;;;4.10;2.90;;;15.20;99.90;;;;;;5114203;28;20177;-62
2022/05/12 06:31:33;;;;;;;4.72;3.10;;;15.40;99.90;;;;;;5115299;28;20515;-61
2022/05/12 06:34:00;;;;;;;3.83;2.67;;;15.40;99.90;;;;;;5115192;28;20618;-61
2022/05/12 06:36:28;;;;;;;4.97;3.53;;;15.60;99.90;;;;;;5115268;28;20181;-62
2022/05/12 06:38:54;;;;;;;4.95;3.10;;;15.80;99.90;;;;;;5115096;28;20169;-62
2022/05/12 06:41:20;;;;;;;4.30;3.20;;;15.90;99.90;;;;;;5114878;28;20615;-62
2022/05/12 06:43:46;;;;;;;3.88;2.85;;;16.00;99.90;;;;;;5113980;28;20185;-62
2022/05/12 06:46:17;;;;;;;4.38;2.75;;;16.00;99.90;;;;;;5115256;28;20177;-62
2022/05/12 06:48:46;;;;;;;5.47;3.20;;;16.10;99.90;;;;;;5114762;28;20180;-61
2022/05/12 06:51:13;;;;;;;5.05;3.22;;;16.20;99.90;;;;;;5115014;28;20176;-62
2022/05/12 06:53:39;;;;;;;5.07;4.10;;;16.40;99.90;;;;;;5114809;28;20181;-62
2022/05/12 06:56:05;;;;;;;3.58;3.03;;;16.50;99.90;;;;;;5113649;28;20226;-62
2022/05/12 06:58:31;;;;;;;4.00;3.05;;;16.50;99.90;;;;;;5113711;28;20229;-62
2022/05/12 07:00:56;;;;;;;5.03;3.20;;;16.80;99.90;;;;;;5114611;28;20295;-62
2022/05/12 07:03:22;;;;;;;3.92;3.05;;;16.80;99.90;;;;;;5114516;28;20180;-62
2022/05/12 07:05:48;;;;;;;4.75;3.22;;;17.00;99.90;;;;;;5114736;28;20192;-61
2022/05/12 07:08:14;;;;;;;4.05;3.10;;;17.00;99.90;;;;;;5114429;28;20177;-61
2022/05/12 07:10:40;;;;;;;4.32;3.22;;;17.00;99.90;;;;;;5114489;28;20211;-61
2022/05/12 07:13:06;;;;;;;3.80;3.33;;;17.00;99.90;;;;;;5114540;28;20559;-61
2022/05/12 07:15:31;;;;;;;5.38;3.10;;;17.30;99.90;;;;;;5114438;28;20197;-62
2022/05/12 07:17:59;;;;;;;5.28;2.90;;;17.50;99.90;;;;;;5114225;28;20173;-61
2022/05/12 07:28:39;;;;;;;3.40;2.67;;;17.70;99.90;;;;;;5113447;28;20661;-61
2022/05/12 07:31:09;;;;;;;4.00;2.22;;;17.60;99.90;;;;;;5114261;28;20177;-61
2022/05/12 07:33:43;;;;;;;3.88;2.00;;;17.60;99.90;;;;;;5112663;28;20576;-61
2022/05/12 07:36:16;;;;;;;3.63;2.10;;;17.90;99.90;;;;;;5113986;28;20658;-61
2022/05/12 07:38:42;;;;;;;2.97;1.52;;;18.00;99.90;;;;;;5113847;28;20257;-61
2022/05/12 07:41:11;;;;;;;4.45;1.90;;;18.10;99.90;;;;;;5114089;28;20209;-62
2022/05/12 07:43:38;;;;;;;2.15;1.70;;;18.20;99.90;;;;;;5113946;28;20264;-62
2022/05/12 07:46:04;;;;;;;4.07;1.75;;;18.40;99.90;;;;;;5113931;28;20172;-62
2022/05/12 07:48:29;;;;;;;2.67;1.67;;;18.60;99.90;;;;;;5113783;28;20264;-62
2022/05/12 07:50:55;;;;;;;3.05;1.58;;;18.50;99.90;;;;;;5113911;28;20573;-62
2022/05/12 07:53:21;;;;;;;1.83;1.52;;;18.60;99.90;;;;;;5113480;28;20177;-62
2022/05/12 07:55:46;;;;;;;3.45;1.63;;;18.70;99.90;;;;;;5113830;28;20184;-62
2022/05/12 07:58:12;;;;;;;2.63;2.00;;;18.80;99.90;;;;;;5114230;28;20177;-62
2022/05/12 08:00:38;;;;;;;3.03;1.73;;;18.70;99.90;;;;;;5112539;28;20209;-62
2022/05/12 08:03:04;;;;;;;2.85;1.38;;;18.70;99.90;;;;;;5113735;28;20173;-62
2022/05/12 08:05:30;;;;;;;2.40;1.23;;;18.70;99.90;;;;;;5113867;28;20184;-62
2022/05/12 08:07:56;;;;;;;1.27;1.10;;;18.90;99.90;;;;;;5112270;28;20177;-62
2022/05/12 08:10:22;;;;;;;1.05;0.90;;;18.70;99.90;;;;;;5113628;28;20666;-62
2022/05/12 08:12:49;;;;;;;1.83;1.25;;;19.10;99.90;;;;;;5113654;28;20503;-63
2022/05/12 08:15:16;;;;;;;0.90;0.90;;;19.20;99.90;;;;;;5112361;28;20216;-62
2022/05/12 08:17:41;;;;;;;1.02;0.90;;;19.30;99.90;;;;;;5113566;28;20180;-62
2022/05/12 08:20:11;;;;;;;1.48;0.90;;;19.40;99.90;;;;;;5113439;28;20209;-62
2022/05/12 08:22:37;;;;;;;3.47;1.15;;;19.50;99.90;;;;;;5113415;28;20670;-62
2022/05/12 08:25:04;;;;;;;2.40;1.00;;;19.60;99.90;;;;;;5113601;28;20626;-62
2022/05/12 08:27:30;;;;;;;1.08;0.90;;;19.50;99.40;;;;;;5113545;28;20180;-62
2022/05/12 08:29:56;;;;;;;1.13;0.80;;;19.70;99.60;;;;;;5112206;28;20174;-62
2022/05/12 08:32:22;;;;;;;1.10;0.90;;;19.90;98.30;;;;;;5113382;28;20185;-62
2022/05/12 08:34:47;;;;;;;2.05;0.95;;;19.90;98.20;;;;;;5113642;28;20181;-62
2022/05/12 08:37:15;;;;;;;1.60;0.80;;;20.00;98.40;;;;;;5113576;28;20177;-62
2022/05/12 08:39:43;;;;;;;0.80;0.80;;;20.00;98.20;;;;;;5113346;28;20174;-62
2022/05/12 08:42:27;;;;;;;1.63;0.90;;;19.90;97.40;;;;;;5113248;28;20511;-62
2022/05/12 08:44:56;;;;;;;0.98;0.80;;;20.20;96.70;;;;;;5113400;28;20176;-61
2022/05/12 08:47:28;;;;;;;0.95;0.80;;;20.10;96.20;;;;;;5113119;28;20192;-61
2022/05/12 08:49:55;;;;;;;1.38;0.98;;;20.20;96.10;;;;;;5113450;28;20177;-61
2022/05/12 08:52:44;;;;;;;1.42;1.00;;;20.40;96.60;;;;;;5113237;28;20176;-61
2022/05/12 08:55:21;;;;;;;1.63;0.95;;;20.20;95.20;;;;;;5113206;28;20180;-61
2022/05/12 08:57:59;;;;;;;1.95;0.77;;;20.20;95.70;;;;;;5113195;28;20238;-61
2022/05/12 09:00:27;;;;;;;0.95;0.70;;;20.20;96.90;;;;;;5113283;28;20208;-62
2022/05/12 09:02:56;;;;;;;1.02;0.80;;;20.40;96.10;;;;;;5113088;28;20170;-61
2022/05/12 09:05:27;;;;;;;2.92;1.08;;;20.60;97.00;;;;;;5112526;28;20205;-60
2022/05/12 09:08:16;;;;;;;1.13;0.90;;;20.50;96.00;;;;;;5116808;28;20173;-61
2022/05/12 09:10:45;;;;;;;1.17;0.80;;;20.50;95.60;;;;;;5116270;28;20177;-62
2022/05/12 09:13:23;;;;;;;2.67;0.80;;;20.50;96.20;;;;;;5116753;28;20177;-62
2022/05/12 09:16:21;;;;;;;0.75;0.70;;;20.30;95.40;;;;;;5116828;28;20218;-62
2022/05/12 09:18:48;;;;;;;1.55;0.80;;;20.50;95.80;;;;;;5104662;28;20649;-62
2022/05/12 09:21:17;;;;;;;1.25;0.80;;;20.50;93.90;;;;;;5116801;28;20209;-61
2022/05/12 09:23:43;;;;;;;1.13;0.88;;;20.40;95.30;;;;;;5116645;28;20180;-61
2022/05/12 09:26:36;;;;;;;1.95;0.93;;;20.00;95.20;;;;;;5116576;28;20268;-61
2022/05/12 09:29:21;;;;;;;1.42;0.93;;;19.80;96.00;;;;;;5116465;28;20298;-62
2022/05/12 09:31:55;;;;;;;2.17;0.82;;;20.20;94.80;;;;;;5116674;28;20169;-61
2022/05/12 09:34:23;;;;;;;0.70;0.68;;;20.20;95.30;;;;;;5116610;28;20208;-61
2022/05/12 09:36:49;;;;;;;1.35;0.80;;;20.20;94.60;;;;;;5116356;28;20165;-61
2022/05/12 09:39:33;;;;;;;1.77;0.80;;;20.20;95.50;;;;;;5116340;28;20676;-62
2022/05/12 09:42:01;;;;;;;0.90;0.70;;;20.30;95.20;;;;;;5116517;28;20185;-62
2022/05/12 09:44:29;;;;;;;0.70;0.60;;;20.60;94.20;;;;;;5116265;28;20178;-62
2022/05/12 09:47:01;;;;;;;0.88;0.60;;;20.60;93.50;;;;;;5116563;28;20174;-62
2022/05/12 09:49:38;;;;;;;1.50;0.90;;;20.70;94.20;;;;;;5116249;28;20218;-61
2022/05/12 09:52:22;;;;;;;0.55;0.50;;;20.50;93.70;;;;;;5116070;28;20176;-62
2022/05/12 09:54:48;;;;;;;1.38;0.75;;;20.20;94.50;;;;;;5116181;28;20534;-61
2022/05/12 09:57:24;;;;;;;0.50;0.50;;;20.00;94.80;;;;;;5116131;28;20173;-62
2022/05/12 09:59:53;;;;;;;0.88;0.68;;;19.70;94.00;;;;;;5115862;28;20649;-62
2022/05/12 10:08:29;;;;;;;1.05;0.70;;;19.80;92.90;;;;;;5115867;28;20318;-62
2022/05/12 10:11:01;;;;;;;0.88;0.57;;;19.90;94.20;;;;;;5115879;28;20177;-62
2022/05/12 10:13:40;;;;;;;1.42;0.68;;;20.30;93.30;;;;;;5114607;28;20289;-62
2022/05/12 10:16:09;;;;;;;0.65;0.60;;;20.70;93.50;;;;;;5115776;28;20169;-62
2022/05/12 10:18:42;;;;;;;0.68;0.60;;;20.40;92.20;;;;;;5115389;28;20166;-62
2022/05/12 10:21:24;;;;;;;2.47;0.80;;;20.30;94.30;;;;;;5115251;28;20197;-62
2022/05/12 10:24:27;;;;;;;1.00;0.55;;;20.20;93.80;;;;;;5115756;28;20169;-62
2022/05/12 10:27:02;;;;;;;1.48;0.50;;;20.50;93.50;;;;;;5115541;28;20200;-62
2022/05/12 10:30:05;;;;;;;0.82;0.50;;;20.80;92.40;;;;;;5115394;28;20614;-62
2022/05/12 10:33:05;;;;;;;0.90;0.57;;;21.20;92.00;;;;;;5052473;28;20186;-61
2022/05/12 10:35:52;;;;;;;1.80;0.70;;;21.40;91.00;;;;;;5115099;28;20173;-61
2022/05/12 10:38:24;;;;;;;2.05;0.85;;;21.20;91.80;;;;;;5115366;28;20614;-62
2022/05/12 10:40:56;;;;;;;0.47;0.47;;;21.40;91.50;;;;;;5115201;28;20212;-61
2022/05/12 10:43:55;;;;;;;1.55;0.70;;;21.50;91.20;;;;;;5115241;28;20170;-62
2022/05/12 10:46:47;;;;;;;1.75;0.55;;;21.40;90.90;;;;;;5113605;28;20231;-61
2022/05/12 10:49:28;;;;;;;0.95;0.52;;;21.30;91.10;;;;;;5114990;28;20531;-62
2022/05/12 10:52:02;;;;;;;0.63;0.60;;;21.20;91.00;;;;;;5114934;28;20192;-62
2022/05/12 10:54:56;;;;;;;0.60;0.50;;;21.30;90.30;;;;;;5114788;28;20176;-62
2022/05/12 10:57:45;;;;;;;0.47;0.45;;;21.50;90.60;;;;;;5114903;28;20176;-62
2022/05/12 11:00:51;;;;;;;0.80;0.65;;;21.80;90.90;;;;;;5114819;28;20277;-62
2022/05/12 11:03:32;;;;;;;0.95;0.68;;;21.40;89.90;;;;;;5114928;28;20673;-62
2022/05/12 11:06:03;;;;;;;0.52;0.52;;;21.20;91.00;;;;;;5115008;28;20192;-61
2022/05/12 11:08:31;;;;;;;1.20;0.70;;;20.90;91.10;;;;;;5114620;28;20165;-62
2022/05/12 11:11:01;;;;;;;2.13;0.80;;;20.70;90.90;;;;;;5114329;28;20181;-62
2022/05/12 11:13:43;;;;;;;0.93;0.60;;;20.50;90.60;;;;;;5114373;28;20732;-62
2022/05/12 11:16:25;;;;;;;1.30;0.70;;;20.30;91.40;;;;;;5114586;28;20683;-62
2022/05/12 11:19:14;;;;;;;0.52;0.52;;;20.10;92.20;;;;;;5114290;28;20180;-62
2022/05/12 11:21:59;;;;;;;1.38;0.80;;;20.10;93.00;;;;;;5114134;28;20208;-62
2022/05/12 11:24:28;;;;;;;1.23;0.80;;;20.00;92.00;;;;;;5114469;28;20653;-62
2022/05/12 11:27:02;;;;;;;1.55;0.65;;;19.90;92.70;;;;;;5114263;27;20173;-61
2022/05/12 11:29:52;;;;;;;0.68;0.52;;;20.00;92.50;;;;;;5113714;28;20161;-62
2022/05/12 11:32:33;;;;;;;1.05;0.70;;;20.00;92.00;;;;;;5114485;28;20199;-62
2022/05/12 11:35:09;;;;;;;1.83;0.88;;;20.50;92.50;;;;;;5113953;28;20710;-61
2022/05/12 11:37:41;;;;;;;1.88;0.90;;;20.50;92.40;;;;;;5114146;28;20249;-62
2022/05/12 11:40:11;;;;;;;1.10;0.80;;;20.50;92.40;;;;;;5114059;28;20204;-62
2022/05/12 11:45:48;;;;;;;1.00;0.90;;;21.20;92.60;;;;;;5114178;28;20669;-62
2022/05/12 11:48:31;;;;;;;3.33;0.73;;;21.20;91.70;;;;;;5113985;28;20162;-62
2022/05/12 11:51:18;;;;;;;1.10;0.65;;;21.20;91.30;;;;;;5114172;28;20196;-62
2022/05/12 11:53:50;;;;;;;1.10;0.80;;;21.30;91.60;;;;;;5114057;28;20293;-61
2022/05/12 11:56:34;;;;;;;1.27;1.20;;;21.50;90.20;;;;;;5113796;28;20634;-62
2022/05/12 11:59:41;;;;;;;1.20;0.75;;;21.60;91.90;;;;;;5113798;28;20240;-62
2022/05/12 12:02:28;;;;;;;0.68;0.68;;;21.80;91.70;;;;;;5113972;28;20185;-62
2022/05/12 12:04:56;;;;;;;0.50;0.50;;;21.70;90.20;;;;;;5113812;28;20188;-62
2022/05/12 12:07:31;;;;;;;0.82;0.75;;;21.80;91.10;;;;;;5113596;28;20198;-62
2022/05/12 12:10:35;;;;;;;1.60;0.82;;;22.10;90.50;;;;;;5114138;28;20568;-62
2022/05/12 12:13:16;;;;;;;1.98;0.80;;;22.20;91.30;;;;;;5079466;28;20537;-62
2022/05/12 12:15:56;;;;;;;2.47;0.90;;;22.50;88.30;;;;;;5113630;28;20176;-62
2022/05/12 12:18:22;;;;;;;1.83;0.68;;;22.50;88.30;;;;;;5113550;28;20188;-62
2022/05/12 12:20:50;;;;;;;1.42;0.88;;;22.50;90.00;;;;;;5113467;28;20270;-62
2022/05/12 12:23:32;;;;;;;0.82;0.63;;;22.60;86.90;;;;;;5113436;28;20574;-62
2022/05/12 12:26:06;;;;;;;1.50;0.77;;;22.60;87.20;;;;;;5113599;28;20169;-62
2022/05/12 12:28:57;;;;;;;0.75;0.63;;;22.70;85.20;;;;;;5113699;28;20166;-62
2022/05/12 12:31:37;;;;;;;0.88;0.82;;;22.60;86.70;;;;;;5113559;28;20670;-62
2022/05/12 12:34:21;;;;;;;1.13;0.60;;;22.50;88.10;;;;;;5113556;28;20169;-62
2022/05/12 12:36:50;;;;;;;1.02;0.90;;;22.20;85.30;;;;;;5113493;28;20234;-62
2022/05/12 12:39:37;;;;;;;1.90;0.80;;;21.80;86.70;;;;;;5113561;28;20252;-62
2022/05/12 12:42:16;;;;;;;1.58;0.68;;;21.60;87.90;;;;;;5116289;28;20673;-62
2022/05/12 12:44:54;;;;;;;1.80;0.75;;;21.60;89.60;;;;;;5117447;28;20169;-62
2022/05/12 12:47:43;;;;;;;1.27;0.82;;;21.40;90.10;;;;;;5117525;28;20176;-62
2022/05/12 12:50:18;;;;;;;0.73;0.60;;;21.30;90.90;;;;;;5117311;28;20165;-62
2022/05/12 12:52:47;;;;;;;2.42;0.70;;;21.20;87.60;;;;;;5117210;28;20183;-61
2022/05/12 12:58:40;;;;;;;1.83;0.80;;;21.40;88.30;;;;;;5117134;28;20311;-62
2022/05/12 13:01:18;;;;;;;0.80;0.80;;;21.20;88.20;;;;;;5117088;28;20280;-62
2022/05/12 13:03:57;;;;;;;0.95;0.60;;;21.30;86.40;;;;;;5116672;28;20169;-61
2022/05/12 13:06:30;;;;;;;1.23;0.80;;;21.20;87.80;;;;;;5117161;28;20173;-62
2022/05/12 13:09:05;;;;;;;1.85;0.80;;;21.10;89.30;;;;;;5116969;28;20238;-61
2022/05/12 13:11:31;;;;;;;1.70;0.73;;;21.10;89.80;;;;;;5116932;28;20176;-61
2022/05/12 13:13:57;;;;;;;1.98;1.10;;;21.30;89.80;;;;;;5116793;28;20181;-61
2022/05/12 13:16:30;;;;;;;1.95;0.80;;;21.60;87.50;;;;;;5116947;28;20256;-62
2022/05/12 13:18:56;;;;;;;1.05;0.60;;;21.70;86.10;;;;;;5115616;28;20541;-62
2022/05/12 13:21:31;;;;;;;0.70;0.70;;;21.80;87.60;;;;;;5116667;28;20326;-61
2022/05/12 13:24:19;;;;;;;1.17;0.70;;;21.90;82.80;;;;;;5116713;28;20181;-62
2022/05/12 13:26:48;;;;;;;0.77;0.77;;;22.00;86.70;;;;;;5116454;28;20192;-61
2022/05/12 13:29:21;;;;;;;1.02;0.70;;;22.20;86.00;;;;;;5116652;28;20218;-62
2022/05/12 13:32:00;;;;;;;2.20;0.80;;;22.20;84.80;;;;;;5116565;28;20177;-62